Ikan Bagat — 3EYX8 — position and weather

sailwx.info

Track history (hours):
 
Tides and Currents Weather Stations Pressure Air Temp Water Temp Dewpoint Dewpoint Depression Visibility Wind Speed Wind Dir Waves Ship Positions

Ikan Bagat

Last reported at 2017-Nov-05 10:16 UTC. Time now 2017-Nov-18 17:49 UTC.
Position S 26°16' E 154°12'.
Warning: this ship's position is 13 days out of date.

Length 229 m; draft 14.6 m.

Type: Ship. MMSI: 354375000.

Date/timePositionNaut miles runAvg speedWind from/ knotsBaromVisibWave heightAir tempDewpointWater temp
2017-Nov-05 10:16S 26°16' E 154°12'4 9.3
2017-Nov-05 09:53S 26°20' E 154°11'3 9.3
2017-Nov-05 09:30S 26°24' E 154°11'7 9.4
2017-Nov-05 08:45S 26°31' E 154°10'3 9.2
2017-Nov-05 08:27S 26°33' E 154°09'4 9.5
2017-Nov-05 08:00S 26°38' E 154°09'8 9.5
2017-Nov-05 07:11S 26°45' E 154°07'54 9.1
2017-Nov-05 01:15S 27°39' E 153°59'2 8.7
2017-Nov-05 01:00S 27°41' E 153°59'4 8.6
2017-Nov-05 00:31S 27°45' E 153°58'4 8.3
2017-Nov-05 00:01S 27°49' E 153°57'4 8.1
2017-Nov-04 23:30S 27°53' E 153°57'4 8.0
2017-Nov-04 23:00S 27°57' E 153°56'4 8.0
2017-Nov-04 22:30S 28°01' E 153°55'4 7.9
2017-Nov-04 22:00S 28°05' E 153°55'4 7.9
2017-Nov-04 21:30S 28°09' E 153°54'4 8.0
2017-Nov-04 21:01S 28°13' E 153°53'4 8.0
2017-Nov-04 20:30S 28°17' E 153°53'4 8.0
2017-Nov-04 20:01S 28°21' E 153°52'4 7.9
2017-Nov-04 19:30S 28°25' E 153°51'4 7.8
2017-Nov-04 19:00S 28°28' E 153°50'4 8.0
2017-Nov-04 18:30S 28°32' E 153°50'5 8.4
2017-Nov-04 17:57S 28°37' E 153°49'235 9.3
2017-Nov-03 16:47S 32°25' E 152°44'310.4
2017-Nov-03 16:30S 32°28' E 152°42'510.3
2017-Nov-03 16:01S 32°32' E 152°39'510.4
2017-Nov-03 15:31S 32°36' E 152°35'510.5
2017-Nov-03 15:01S 32°40' E 152°30'510.3
2017-Nov-03 14:31S 32°43' E 152°26'510.3
2017-Nov-03 14:00S 32°47' E 152°22'510.7
2017-Nov-03 13:30S 32°50' E 152°16'510.8
2017-Nov-03 13:01S 32°53' E 152°11'510.7
2017-Nov-03 12:31S 32°56' E 152°06'510.1
2017-Nov-03 12:00S 32°58' E 152°00'510.4
2017-Nov-03 11:30S 32°58' E 151°54'4 7.6
2017-Nov-03 11:00S 32°57' E 151°50'3 5.0
2017-Nov-03 10:31S 32°55' E 151°47'1 2.9
2017-Nov-03 10:00S 32°54' E 151°46'1 2.5
2017-Nov-03 09:29S 32°53' E 151°45'0 0.0
2017-Nov-03 08:59S 32°53' E 151°45'0 0.0
2017-Nov-03 08:29S 32°53' E 151°45'0 0.0
2017-Nov-03 07:59S 32°53' E 151°45'0 0.0
2017-Nov-03 07:29S 32°53' E 151°45'0 0.0
2017-Nov-03 06:59S 32°53' E 151°45'0 0.0
2017-Nov-03 06:29S 32°53' E 151°45'0 0.0
2017-Nov-03 05:59S 32°53' E 151°45'0 0.0
2017-Nov-03 05:29S 32°53' E 151°45'0 0.0
2017-Nov-03 04:59S 32°53' E 151°45'0 0.0
2017-Nov-03 04:29S 32°53' E 151°45'0 0.0
2017-Nov-03 03:59S 32°53' E 151°45'0 0.0
2017-Nov-03 03:29S 32°53' E 151°45'0 0.0
2017-Nov-03 02:59S 32°53' E 151°45'0 0.0
2017-Nov-03 02:23S 32°53' E 151°45'0 0.0
2017-Nov-03 01:41S 32°53' E 151°45'0 0.0
2017-Nov-03 01:29S 32°53' E 151°45'0 0.0
2017-Nov-03 00:59S 32°53' E 151°45'0 0.0
2017-Nov-03 00:29S 32°53' E 151°45'0 0.0
2017-Nov-02 23:17S 32°53' E 151°45'0 0.0
2017-Nov-02 22:59S 32°53' E 151°45'0 0.0
2017-Nov-02 22:29S 32°53' E 151°45'0 0.0
2017-Nov-02 21:56S 32°53' E 151°45'0 0.0
2017-Nov-02 21:29S 32°53' E 151°45'0 0.0
2017-Nov-02 20:53S 32°53' E 151°45'0 0.0
2017-Nov-02 20:29S 32°53' E 151°45'0 0.0
2017-Nov-02 19:59S 32°53' E 151°45'0 0.0
2017-Nov-02 19:29S 32°53' E 151°45'0 0.0
2017-Nov-02 18:59S 32°53' E 151°45'0 0.0
2017-Nov-02 18:29S 32°53' E 151°45'0 0.0
2017-Nov-02 17:38S 32°53' E 151°45'0 0.0
2017-Nov-02 17:26S 32°53' E 151°45'0 0.0
2017-Nov-02 16:59S 32°53' E 151°45'0 0.0
2017-Nov-02 16:29S 32°53' E 151°45'0 0.0
2017-Nov-02 15:56S 32°53' E 151°45'0 0.0
2017-Nov-02 15:29S 32°53' E 151°45'0 0.0
2017-Nov-02 14:59S 32°53' E 151°45'0 0.0
2017-Nov-02 14:29S 32°53' E 151°45'0 0.0
2017-Nov-02 13:59S 32°53' E 151°45'0 0.0
2017-Nov-02 13:29S 32°53' E 151°45'0 0.0
2017-Nov-02 12:59S 32°53' E 151°45'0 0.6
2017-Nov-02 12:29S 32°53' E 151°46'2 3.4
2017-Nov-02 12:00S 32°55' E 151°46'3 6.7
2017-Nov-02 11:30S 32°56' E 151°50'3 6.9
2017-Nov-02 11:00S 32°59' E 151°52'3 7.0
2017-Nov-02 10:30S 33°01' E 151°56'5 9.1
2017-Nov-02 10:01S 33°02' E 152°01'3 5.2
2017-Nov-02 09:30S 33°03' E 152°04'2 4.8
2017-Nov-02 09:01S 33°03' E 152°06'2 3.4
2017-Nov-02 08:28S 33°04' E 152°08'1 1.8
2017-Nov-02 07:58S 33°05' E 152°09'1 1.6
2017-Nov-02 07:25S 33°06' E 152°09'1 1.7
2017-Nov-02 06:58S 33°07' E 152°09'1 1.9
2017-Nov-02 06:28S 33°08' E 152°09'1 2.0
2017-Nov-02 05:58S 33°09' E 152°09'1 3.0
2017-Nov-02 05:31S 33°10' E 152°09'2 3.4
2017-Nov-02 05:00S 33°11' E 152°11'8 4.7
2017-Nov-02 03:18S 33°04' E 152°16'2 6.0
2017-Nov-02 02:58S 33°03' E 152°17'3 7.2
2017-Nov-02 02:30S 33°00' E 152°19'4 7.0
2017-Nov-02 01:57S 32°57' E 152°23'1 1.1
2017-Nov-02 01:28S 32°57' E 152°22'1 1.9
2017-Nov-02 01:00S 32°57' E 152°21'4 7.5
2017-Nov-02 00:30S 32°55' E 152°18'1 1.1
2017-Nov-01 23:58S 32°55' E 152°19'1 1.3
2017-Nov-01 23:28S 32°55' E 152°19'1 1.5
2017-Nov-01 23:00S 32°56' E 152°20'3 6.7
2017-Nov-01 22:30S 32°53' E 152°22'4 7.3
2017-Nov-01 22:00S 32°49' E 152°24'2 3.4
2017-Nov-01 21:30S 32°48' E 152°24'1 1.9
2017-Nov-01 21:00S 32°48' E 152°23'1 1.2
2017-Nov-01 20:30S 32°49' E 152°23'1 1.1
2017-Nov-01 19:58S 32°48' E 152°22'1 1.6
2017-Nov-01 19:28S 32°49' E 152°23'1 1.4
2017-Nov-01 18:58S 32°49' E 152°23'0 0.6
2017-Nov-01 18:28S 32°50' E 152°24'6 0.4
2017-Nov-01 02:00S 32°55' E 152°22'1 2.1
2017-Nov-01 01:30S 32°56' E 152°21'1 2.1
2017-Nov-01 01:00S 32°57' E 152°20'1 2.0
2017-Nov-01 00:30S 32°58' E 152°19'3 5.3
2017-Nov-01 00:00S 32°56' E 152°21'2 3.4
2017-Oct-31 23:30S 32°54' E 152°21'0 0.6
2017-Oct-31 23:01S 32°54' E 152°21'1 1.9
2017-Oct-31 22:30S 32°55' E 152°21'1 1.8
2017-Oct-31 22:00S 32°55' E 152°20'1 1.7
2017-Oct-31 21:30S 32°56' E 152°19'1 2.6
2017-Oct-31 21:00S 32°55' E 152°18'1 1.9
2017-Oct-31 20:30S 32°54' E 152°19'1 2.7
2017-Oct-31 20:00S 32°55' E 152°19'2 4.0
2017-Oct-31 19:30S 32°57' E 152°20'2 3.2
2017-Oct-31 19:00S 32°56' E 152°18'1 1.8
2017-Oct-31 18:30S 32°55' E 152°18'3 6.4
2017-Oct-31 18:01S 32°53' E 152°19'3 6.9
2017-Oct-31 17:31S 32°50' E 152°22'4 7.0
2017-Oct-31 17:00S 32°47' E 152°24'3 6.8
2017-Oct-31 16:30S 32°44' E 152°26'4 7.9
2017-Oct-31 16:00S 32°41' E 152°29'4 7.9
2017-Oct-31 15:30S 32°38' E 152°32'4 8.2
2017-Oct-31 15:00S 32°35' E 152°35'4 8.0
2017-Oct-31 14:30S 32°31' E 152°38'4 7.7
2017-Oct-31 14:00S 32°28' E 152°41'4 7.8
2017-Oct-31 13:30S 32°25' E 152°42'221 9.5
2017-Oct-30 14:13S 28°60' E 154°19'2013.2
2017-Oct-30 12:43S 28°41' E 154°27'3312.7
2017-Oct-30 10:05S 28°10' E 154°41'312.5
2017-Oct-30 09:51S 28°08' E 154°42'512.5
2017-Oct-30 09:27S 28°03' E 154°44'1612.4
2017-Oct-30 08:10S 27°48' E 154°51'1412.7
2017-Oct-30 07:03S 27°35' E 154°57'112.1
2017-Oct-30 06:59S 27°34' E 154°57'612.3
2017-Oct-30 06:29S 27°28' E 154°60'613.1
2017-Oct-30 06:00S 27°23' E 155°03'1614.5
2017-Oct-30 04:52S 27°07' E 155°09'814.9
2017-Oct-30 04:22S 27°01' E 155°13'615.0
2017-Oct-30 03:59S 26°55' E 155°15'17612.4
2017-Oct-29 13:45S 24°03' E 154°35'312.4
2017-Oct-29 13:30S 23°60' E 154°34'6713.3
2017-Oct-29 08:27S 22°56' E 154°11'  
Track history (hours):
 
Tides and Currents Weather Stations Pressure Air Temp Water Temp Dewpoint Dewpoint Depression Visibility Wind Speed Wind Dir Waves Ship Positions

Ikan Bagat

Last reported at 2017-Nov-05 10:16 UTC. Time now 2017-Nov-18 17:49 UTC.
Position S 26°16' E 154°12'.
Warning: this ship's position is 13 days out of date.

Length 229 m; draft 14.6 m.

Type: Ship. MMSI: 354375000.

Date/timePositionNaut miles runAvg speedWind from/ knotsBaromVisibWave heightAir tempDewpointWater temp
2017-Nov-05 10:16S 26°16' E 154°12'4 9.3
2017-Nov-05 09:53S 26°20' E 154°11'3 9.3
2017-Nov-05 09:30S 26°24' E 154°11'7 9.4
2017-Nov-05 08:45S 26°31' E 154°10'3 9.2
2017-Nov-05 08:27S 26°33' E 154°09'4 9.5
2017-Nov-05 08:00S 26°38' E 154°09'8 9.5
2017-Nov-05 07:11S 26°45' E 154°07'54 9.1
2017-Nov-05 01:15S 27°39' E 153°59'2 8.7
2017-Nov-05 01:00S 27°41' E 153°59'4 8.6
2017-Nov-05 00:31S 27°45' E 153°58'4 8.3
2017-Nov-05 00:01S 27°49' E 153°57'4 8.1
2017-Nov-04 23:30S 27°53' E 153°57'4 8.0
2017-Nov-04 23:00S 27°57' E 153°56'4 8.0
2017-Nov-04 22:30S 28°01' E 153°55'4 7.9
2017-Nov-04 22:00S 28°05' E 153°55'4 7.9
2017-Nov-04 21:30S 28°09' E 153°54'4 8.0
2017-Nov-04 21:01S 28°13' E 153°53'4 8.0
2017-Nov-04 20:30S 28°17' E 153°53'4 8.0
2017-Nov-04 20:01S 28°21' E 153°52'4 7.9
2017-Nov-04 19:30S 28°25' E 153°51'4 7.8
2017-Nov-04 19:00S 28°28' E 153°50'4 8.0
2017-Nov-04 18:30S 28°32' E 153°50'5 8.4
2017-Nov-04 17:57S 28°37' E 153°49'235 9.3
2017-Nov-03 16:47S 32°25' E 152°44'310.4
2017-Nov-03 16:30S 32°28' E 152°42'510.3
2017-Nov-03 16:01S 32°32' E 152°39'510.4
2017-Nov-03 15:31S 32°36' E 152°35'510.5
2017-Nov-03 15:01S 32°40' E 152°30'510.3
2017-Nov-03 14:31S 32°43' E 152°26'510.3
2017-Nov-03 14:00S 32°47' E 152°22'510.7
2017-Nov-03 13:30S 32°50' E 152°16'510.8
2017-Nov-03 13:01S 32°53' E 152°11'510.7
2017-Nov-03 12:31S 32°56' E 152°06'510.1
2017-Nov-03 12:00S 32°58' E 152°00'510.4
2017-Nov-03 11:30S 32°58' E 151°54'4 7.6
2017-Nov-03 11:00S 32°57' E 151°50'3 5.0
2017-Nov-03 10:31S 32°55' E 151°47'1 2.9
2017-Nov-03 10:00S 32°54' E 151°46'1 2.5
2017-Nov-03 09:29S 32°53' E 151°45'0 0.0
2017-Nov-03 08:59S 32°53' E 151°45'0 0.0
2017-Nov-03 08:29S 32°53' E 151°45'0 0.0
2017-Nov-03 07:59S 32°53' E 151°45'0 0.0
2017-Nov-03 07:29S 32°53' E 151°45'0 0.0
2017-Nov-03 06:59S 32°53' E 151°45'0 0.0
2017-Nov-03 06:29S 32°53' E 151°45'0 0.0
2017-Nov-03 05:59S 32°53' E 151°45'0 0.0
2017-Nov-03 05:29S 32°53' E 151°45'0 0.0
2017-Nov-03 04:59S 32°53' E 151°45'0 0.0
2017-Nov-03 04:29S 32°53' E 151°45'0 0.0
2017-Nov-03 03:59S 32°53' E 151°45'0 0.0
2017-Nov-03 03:29S 32°53' E 151°45'0 0.0
2017-Nov-03 02:59S 32°53' E 151°45'0 0.0
2017-Nov-03 02:23S 32°53' E 151°45'0 0.0
2017-Nov-03 01:41S 32°53' E 151°45'0 0.0
2017-Nov-03 01:29S 32°53' E 151°45'0 0.0
2017-Nov-03 00:59S 32°53' E 151°45'0 0.0
2017-Nov-03 00:29S 32°53' E 151°45'0 0.0
2017-Nov-02 23:17S 32°53' E 151°45'0 0.0
2017-Nov-02 22:59S 32°53' E 151°45'0 0.0
2017-Nov-02 22:29S 32°53' E 151°45'0 0.0
2017-Nov-02 21:56S 32°53' E 151°45'0 0.0
2017-Nov-02 21:29S 32°53' E 151°45'0 0.0
2017-Nov-02 20:53S 32°53' E 151°45'0 0.0
2017-Nov-02 20:29S 32°53' E 151°45'0 0.0
2017-Nov-02 19:59S 32°53' E 151°45'0 0.0
2017-Nov-02 19:29S 32°53' E 151°45'0 0.0
2017-Nov-02 18:59S 32°53' E 151°45'0 0.0
2017-Nov-02 18:29S 32°53' E 151°45'0 0.0
2017-Nov-02 17:38S 32°53' E 151°45'0 0.0
2017-Nov-02 17:26S 32°53' E 151°45'0 0.0
2017-Nov-02 16:59S 32°53' E 151°45'0 0.0
2017-Nov-02 16:29S 32°53' E 151°45'0 0.0
2017-Nov-02 15:56S 32°53' E 151°45'0 0.0
2017-Nov-02 15:29S 32°53' E 151°45'0 0.0
2017-Nov-02 14:59S 32°53' E 151°45'0 0.0
2017-Nov-02 14:29S 32°53' E 151°45'0 0.0
2017-Nov-02 13:59S 32°53' E 151°45'0 0.0
2017-Nov-02 13:29S 32°53' E 151°45'0 0.0
2017-Nov-02 12:59S 32°53' E 151°45'0 0.6
2017-Nov-02 12:29S 32°53' E 151°46'2 3.4
2017-Nov-02 12:00S 32°55' E 151°46'3 6.7
2017-Nov-02 11:30S 32°56' E 151°50'3 6.9
2017-Nov-02 11:00S 32°59' E 151°52'3 7.0
2017-Nov-02 10:30S 33°01' E 151°56'5 9.1
2017-Nov-02 10:01S 33°02' E 152°01'3 5.2
2017-Nov-02 09:30S 33°03' E 152°04'2 4.8
2017-Nov-02 09:01S 33°03' E 152°06'2 3.4
2017-Nov-02 08:28S 33°04' E 152°08'1 1.8
2017-Nov-02 07:58S 33°05' E 152°09'1 1.6
2017-Nov-02 07:25S 33°06' E 152°09'1 1.7
2017-Nov-02 06:58S 33°07' E 152°09'1 1.9
2017-Nov-02 06:28S 33°08' E 152°09'1 2.0
2017-Nov-02 05:58S 33°09' E 152°09'1 3.0
2017-Nov-02 05:31S 33°10' E 152°09'2 3.4
2017-Nov-02 05:00S 33°11' E 152°11'8 4.7
2017-Nov-02 03:18S 33°04' E 152°16'2 6.0
2017-Nov-02 02:58S 33°03' E 152°17'3 7.2
2017-Nov-02 02:30S 33°00' E 152°19'4 7.0
2017-Nov-02 01:57S 32°57' E 152°23'1 1.1
2017-Nov-02 01:28S 32°57' E 152°22'1 1.9
2017-Nov-02 01:00S 32°57' E 152°21'4 7.5
2017-Nov-02 00:30S 32°55' E 152°18'1 1.1
2017-Nov-01 23:58S 32°55' E 152°19'1 1.3
2017-Nov-01 23:28S 32°55' E 152°19'1 1.5
2017-Nov-01 23:00S 32°56' E 152°20'3 6.7
2017-Nov-01 22:30S 32°53' E 152°22'4 7.3
2017-Nov-01 22:00S 32°49' E 152°24'2 3.4
2017-Nov-01 21:30S 32°48' E 152°24'1 1.9
2017-Nov-01 21:00S 32°48' E 152°23'1 1.2
2017-Nov-01 20:30S 32°49' E 152°23'1 1.1
2017-Nov-01 19:58S 32°48' E 152°22'1 1.6
2017-Nov-01 19:28S 32°49' E 152°23'1 1.4
2017-Nov-01 18:58S 32°49' E 152°23'0 0.6
2017-Nov-01 18:28S 32°50' E 152°24'6 0.4
2017-Nov-01 02:00S 32°55' E 152°22'1 2.1
2017-Nov-01 01:30S 32°56' E 152°21'1 2.1
2017-Nov-01 01:00S 32°57' E 152°20'1 2.0
2017-Nov-01 00:30S 32°58' E 152°19'3 5.3
2017-Nov-01 00:00S 32°56' E 152°21'2 3.4
2017-Oct-31 23:30S 32°54' E 152°21'0 0.6
2017-Oct-31 23:01S 32°54' E 152°21'1 1.9
2017-Oct-31 22:30S 32°55' E 152°21'1 1.8
2017-Oct-31 22:00S 32°55' E 152°20'1 1.7
2017-Oct-31 21:30S 32°56' E 152°19'1 2.6
2017-Oct-31 21:00S 32°55' E 152°18'1 1.9
2017-Oct-31 20:30S 32°54' E 152°19'1 2.7
2017-Oct-31 20:00S 32°55' E 152°19'2 4.0
2017-Oct-31 19:30S 32°57' E 152°20'2 3.2
2017-Oct-31 19:00S 32°56' E 152°18'1 1.8
2017-Oct-31 18:30S 32°55' E 152°18'3 6.4
2017-Oct-31 18:01S 32°53' E 152°19'3 6.9
2017-Oct-31 17:31S 32°50' E 152°22'4 7.0
2017-Oct-31 17:00S 32°47' E 152°24'3 6.8
2017-Oct-31 16:30S 32°44' E 152°26'4 7.9
2017-Oct-31 16:00S 32°41' E 152°29'4 7.9
2017-Oct-31 15:30S 32°38' E 152°32'4 8.2
2017-Oct-31 15:00S 32°35' E 152°35'4 8.0
2017-Oct-31 14:30S 32°31' E 152°38'4 7.7
2017-Oct-31 14:00S 32°28' E 152°41'4 7.8
2017-Oct-31 13:30S 32°25' E 152°42'221 9.5
2017-Oct-30 14:13S 28°60' E 154°19'2013.2
2017-Oct-30 12:43S 28°41' E 154°27'3312.7
2017-Oct-30 10:05S 28°10' E 154°41'312.5
2017-Oct-30 09:51S 28°08' E 154°42'512.5
2017-Oct-30 09:27S 28°03' E 154°44'1612.4
2017-Oct-30 08:10S 27°48' E 154°51'1412.7
2017-Oct-30 07:03S 27°35' E 154°57'112.1
2017-Oct-30 06:59S 27°34' E 154°57'612.3
2017-Oct-30 06:29S 27°28' E 154°60'613.1
2017-Oct-30 06:00S 27°23' E 155°03'1614.5
2017-Oct-30 04:52S 27°07' E 155°09'814.9
2017-Oct-30 04:22S 27°01' E 155°13'615.0
2017-Oct-30 03:59S 26°55' E 155°15'17612.4
2017-Oct-29 13:45S 24°03' E 154°35'312.4
2017-Oct-29 13:30S 23°60' E 154°34'6713.3
2017-Oct-29 08:27S 22°56' E 154°11'  

Dump ship's entire track history